SBBG

Comandante Gustavo Kraemer Airport

Bagé, Brazil
METAR SBBG 121900Z 26009KT 9999 SCT023 OVC100 28/21 Q1014
Observed Flight Rules
Dec-12 @ 19:00 UTC (7 hours ago) Visual Flight Rules
Wind Visibility Clouds
260° at 9 knots 10,000+ meters
  • Scattered at 2,300' AGL
  • Overcast at 10,000' AGL
Temperatures Readings
Current 28°C / 82°F
Dewpoint 21°C / 70°F
Humidity 66%
Altimeter 29.94" Hg
Pressure 1014 hPa
Elevation 180
METAR SBBG 121900Z 26009KT 9999 SCT023 OVC100 28/21 Q1014
Observed Flight Rules
Dec-12 @ 19:00 UTC
(7 hours ago)
VFR
Wind Visibility
260° at 9 knots 10,000+ meters
Clouds
  • Scattered at 2,300' AGL
  • Overcast at 10,000' AGL
Temperature Dewpoint
28°C / 82°F 21°C / 70°F
Humidity Altimeter Pressure
66% 29.94" Hg 1014 hPa